Time;durP1;ratioP1;P1;durP2;ratioP2;P2;SDS_P1;SDS_P2;PMS_P1;PMS_P2;Temp;Humidity;BMP_temperature;BMP_pressure;BME280_temperature;BME280_humidity;BME280_pressure;Samples;Min_cycle;Max_cycle;Signal;HPM_P1;HPM_P2
2023/06/02 00:04:05;;;;;;;21.85;15.52;;;10.20;99.90;;;;;;20904471;28;20062;-46
2023/06/02 00:14:07;;;;;;;17.52;13.15;;;10.40;99.90;;;;;;20913687;28;20029;-48
2023/06/02 00:24:09;;;;;;;15.65;11.77;;;10.50;99.90;;;;;;20913266;28;20083;-44
2023/06/02 00:34:10;;;;;;;15.40;10.93;;;10.70;99.90;;;;;;20911918;28;20076;-43
2023/06/02 00:44:13;;;;;;;14.70;10.70;;;10.80;99.90;;;;;;20913438;28;20029;-48
2023/06/02 00:54:16;;;;;;;15.32;11.85;;;10.70;99.90;;;;;;20918509;28;20028;-49
2023/06/02 01:04:18;;;;;;;16.63;11.85;;;10.60;99.90;;;;;;20908829;28;20037;-47
2023/06/02 01:14:20;;;;;;;17.60;12.48;;;10.50;99.90;;;;;;20908271;28;20029;-44
2023/06/02 01:24:22;;;;;;;19.48;14.85;;;10.40;99.90;;;;;;20912965;28;20552;-47
2023/06/02 01:34:30;;;;;;;19.23;15.27;;;10.40;99.90;;;;;;20920546;28;20056;-47
2023/06/02 01:44:33;;;;;;;22.00;15.52;;;10.40;99.90;;;;;;20914245;28;20095;-45
2023/06/02 01:54:36;;;;;;;22.98;16.13;;;10.30;99.90;;;;;;20906897;28;20106;-48
2023/06/02 02:04:40;;;;;;;19.80;15.77;;;10.20;99.90;;;;;;20909796;28;20033;-47
2023/06/02 02:14:41;;;;;;;21.13;15.15;;;10.30;99.90;;;;;;20904816;28;20063;-45
2023/06/02 02:24:43;;;;;;;19.65;14.52;;;10.60;99.90;;;;;;20904142;28;20095;-45
2023/06/02 02:34:46;;;;;;;21.00;14.65;;;10.70;99.90;;;;;;20902192;28;20045;-45
2023/06/02 02:44:49;;;;;;;21.10;14.93;;;10.80;99.90;;;;;;20897839;28;20548;-47
2023/06/02 02:54:51;;;;;;;19.45;14.20;;;11.00;99.90;;;;;;20905852;28;20131;-48
2023/06/02 03:04:52;;;;;;;17.00;13.52;;;10.90;99.90;;;;;;20898418;28;20048;-45
2023/06/02 03:14:55;;;;;;;16.50;10.85;;;10.70;99.90;;;;;;20900515;28;20033;-48
2023/06/02 03:24:57;;;;;;;12.88;9.80;;;10.70;99.90;;;;;;20897686;28;20041;-45
2023/06/02 03:34:59;;;;;;;10.88;8.75;;;10.50;99.90;;;;;;20903144;28;20122;-48
2023/06/02 03:45:02;;;;;;;11.20;7.82;;;10.50;99.90;;;;;;20907594;28;20037;-47
2023/06/02 03:55:06;;;;;;;10.95;7.45;;;10.50;99.90;;;;;;20917767;28;20056;-47
2023/06/02 04:05:11;;;;;;;9.40;7.05;;;10.30;99.90;;;;;;20918104;28;20103;-52
2023/06/02 04:15:13;;;;;;;7.93;6.28;;;10.30;99.90;;;;;;20912663;28;20378;-48
2023/06/02 04:25:16;;;;;;;8.82;7.30;;;10.30;99.90;;;;;;20916096;28;20033;-50
2023/06/02 04:35:18;;;;;;;9.98;6.72;;;10.30;99.90;;;;;;20915259;28;20095;-53
2023/06/02 04:45:20;;;;;;;8.20;6.55;;;10.50;99.90;;;;;;20910338;28;20540;-45
2023/06/02 04:55:24;;;;;;;8.45;6.72;;;10.70;99.90;;;;;;20912275;28;20029;-43
2023/06/02 05:05:27;;;;;;;9.20;6.45;;;10.90;99.90;;;;;;20904367;28;20114;-43
2023/06/02 05:15:29;;;;;;;9.20;6.63;;;11.30;99.90;;;;;;20904742;28;20029;-46
2023/06/02 05:25:31;;;;;;;9.95;6.30;;;11.80;99.90;;;;;;20906660;28;20033;-46
2023/06/02 05:35:32;;;;;;;14.65;7.93;;;12.00;99.90;;;;;;20870767;28;1326219;-50
2023/06/02 05:45:34;;;;;;;9.90;7.63;;;12.00;99.90;;;;;;20907154;28;20098;-44
2023/06/02 05:55:37;;;;;;;10.15;6.82;;;12.20;99.90;;;;;;20908538;28;20028;-47
2023/06/02 06:05:39;;;;;;;7.50;5.63;;;12.60;99.90;;;;;;20911017;28;20478;-45
2023/06/02 06:15:41;;;;;;;5.53;4.70;;;13.60;99.90;;;;;;20906459;28;20059;-45
2023/06/02 06:25:43;;;;;;;5.50;4.10;;;17.60;99.90;;;;;;20904804;28;20154;-52
2023/06/02 06:35:45;;;;;;;6.05;5.32;;;20.40;99.90;;;;;;20910682;28;20040;-55
2023/06/02 06:45:48;;;;;;;5.97;4.05;;;23.00;99.40;;;;;;20897957;28;20037;-57
2023/06/02 06:55:49;;;;;;;4.68;4.20;;;23.90;96.50;;;;;;20905494;28;20037;-45
2023/06/02 07:05:51;;;;;;;6.00;4.95;;;25.10;95.00;;;;;;20900666;28;20032;-57
2023/06/02 07:15:53;;;;;;;6.72;4.40;;;26.30;93.60;;;;;;20898798;28;20033;-47
2023/06/02 07:25:54;;;;;;;5.18;4.68;;;27.30;92.00;;;;;;20899698;28;20029;-57
2023/06/02 07:35:56;;;;;;;5.80;4.30;;;27.70;91.30;;;;;;20896134;28;20389;-57
2023/06/02 07:45:58;;;;;;;5.97;5.20;;;26.90;91.20;;;;;;20900724;28;20091;-56
2023/06/02 07:56:01;;;;;;;5.80;5.20;;;26.80;90.50;;;;;;20897072;28;20094;-57
2023/06/02 08:06:03;;;;;;;5.80;5.30;;;27.50;91.10;;;;;;20905817;28;20382;-57
2023/06/02 08:16:06;;;;;;;4.95;3.95;;;27.10;89.40;;;;;;20897967;28;20107;-57
2023/06/02 08:26:07;;;;;;;5.90;5.20;;;25.80;91.80;;;;;;20902859;28;20041;-47
2023/06/02 08:36:09;;;;;;;6.95;6.35;;;27.30;91.60;;;;;;20913776;28;20371;-51
2023/06/02 08:46:15;;;;;;;6.18;5.60;;;28.60;88.50;;;;;;20911484;28;20078;-57
2023/06/02 08:56:16;;;;;;;6.70;5.88;;;28.00;88.20;;;;;;20912200;28;20514;-55
2023/06/02 09:06:23;;;;;;;5.40;4.75;;;26.30;90.00;;;;;;20914326;28;20037;-44
2023/06/02 09:16:40;;;;;;;8.00;6.07;;;24.20;92.90;;;;;;20914521;28;20048;-52
2023/06/02 09:26:51;;;;;;;5.93;5.33;;;22.80;94.00;;;;;;20909784;28;20209;-44
2023/06/02 09:36:53;;;;;;;7.35;5.82;;;22.20;96.50;;;;;;20907005;28;20041;-53
2023/06/02 09:46:55;;;;;;;7.47;5.13;;;22.30;95.70;;;;;;20906225;28;20029;-51
2023/06/02 09:56:57;;;;;;;9.90;6.45;;;22.10;96.60;;;;;;20909321;28;20056;-47
2023/06/02 10:07:06;;;;;;;9.13;6.97;;;22.10;96.60;;;;;;20907755;28;20037;-52
2023/06/02 10:17:45;;;;;;;9.50;7.63;;;20.80;97.80;;;;;;20904784;28;20056;-51
2023/06/02 10:27:48;;;;;;;10.13;7.75;;;19.30;99.90;;;;;;20903021;28;20025;-50
2023/06/02 10:38:28;;;;;;;10.35;8.45;;;18.70;99.90;;;;;;20902843;28;20037;-51
2023/06/02 10:48:40;;;;;;;11.77;9.77;;;18.90;99.90;;;;;;20909619;28;20029;-47
2023/06/02 10:58:48;;;;;;;11.65;10.25;;;19.50;99.90;;;;;;20903141;28;20033;-45
2023/06/02 11:08:51;;;;;;;12.17;9.70;;;20.00;99.90;;;;;;20905193;28;20371;-55
2023/06/02 11:18:53;;;;;;;12.88;10.68;;;20.20;99.90;;;;;;20903602;28;20044;-45
2023/06/02 11:28:55;;;;;;;11.65;10.18;;;20.40;99.90;;;;;;20899154;28;20463;-53
2023/06/02 11:39:08;;;;;;;13.85;11.57;;;20.60;99.90;;;;;;20903448;28;20045;-53
2023/06/02 11:49:09;;;;;;;10.77;9.68;;;20.70;99.90;;;;;;20898822;28;20062;-54
2023/06/02 11:59:17;;;;;;;10.00;9.00;;;20.80;99.90;;;;;;20897007;28;20037;-54
2023/06/02 12:09:19;;;;;;;12.43;10.40;;;21.20;99.90;;;;;;20911200;28;20075;-53
2023/06/02 12:19:22;;;;;;;12.40;9.63;;;21.20;98.70;;;;;;20923352;28;20032;-55
2023/06/02 12:29:24;;;;;;;10.25;9.20;;;21.30;99.60;;;;;;20913264;28;20139;-51
2023/06/02 12:39:25;;;;;;;10.70;9.45;;;22.00;99.70;;;;;;20908723;28;20045;-55
2023/06/02 12:49:27;;;;;;;10.88;7.80;;;22.60;98.40;;;;;;20911709;28;20033;-53
2023/06/02 12:59:29;;;;;;;10.30;7.82;;;23.30;98.30;;;;;;20913587;28;20041;-55
2023/06/02 13:09:30;;;;;;;8.45;7.50;;;23.70;96.80;;;;;;20908090;28;20107;-55
2023/06/02 13:19:32;;;;;;;7.50;6.75;;;23.80;95.80;;;;;;20910646;28;20029;-44
2023/06/02 13:29:35;;;;;;;9.77;7.40;;;23.40;96.80;;;;;;20910329;28;20102;-56
2023/06/02 13:39:36;;;;;;;9.27;7.47;;;23.60;96.50;;;;;;20912031;28;20107;-52
2023/06/02 13:49:38;;;;;;;8.65;7.80;;;23.70;96.50;;;;;;20915294;28;20040;-46
2023/06/02 13:59:40;;;;;;;8.23;7.43;;;23.60;95.90;;;;;;20905809;28;20079;-49
2023/06/02 14:09:42;;;;;;;10.43;7.90;;;23.20;96.00;;;;;;20903060;28;20033;-54
2023/06/02 14:19:44;;;;;;;8.73;6.60;;;23.20;96.90;;;;;;20905937;28;20090;-53
2023/06/02 14:29:46;;;;;;;6.88;6.15;;;23.40;94.50;;;;;;20903004;28;20033;-48
2023/06/02 14:39:47;;;;;;;6.80;6.10;;;24.10;97.20;;;;;;20903005;28;20098;-53
2023/06/02 14:49:49;;;;;;;7.25;6.55;;;25.40;93.80;;;;;;20906397;28;20037;-55
2023/06/02 14:59:51;;;;;;;8.80;7.07;;;26.10;93.10;;;;;;20907311;28;20335;-48
2023/06/02 15:09:53;;;;;;;9.02;7.90;;;26.00;93.40;;;;;;20901096;28;20028;-52
2023/06/02 15:19:54;;;;;;;11.55;9.98;;;25.00;94.00;;;;;;20900507;28;20482;-53
2023/06/02 15:29:56;;;;;;;13.07;10.60;;;22.90;96.70;;;;;;20897288;28;20086;-48
2023/06/02 15:39:57;;;;;;;12.10;10.57;;;21.20;98.80;;;;;;20914197;28;20045;-52
2023/06/02 15:50:01;;;;;;;11.82;10.63;;;20.70;99.90;;;;;;20916233;28;20091;-55
2023/06/02 16:00:04;;;;;;;14.40;12.15;;;21.40;99.30;;;;;;20915723;28;20037;-51
2023/06/02 16:10:10;;;;;;;12.70;10.93;;;22.40;95.70;;;;;;20912093;28;20109;-52
2023/06/02 16:20:12;;;;;;;11.98;10.77;;;21.40;97.60;;;;;;20912533;28;20025;-51
2023/06/02 16:30:13;;;;;;;12.43;10.50;;;20.60;98.60;;;;;;20920644;28;20364;-53
2023/06/02 16:40:15;;;;;;;16.23;12.60;;;19.30;99.70;;;;;;20910595;28;20106;-50
2023/06/02 16:50:17;;;;;;;17.33;12.20;;;18.20;99.90;;;;;;20907235;28;20102;-52
2023/06/02 17:00:19;;;;;;;24.55;19.45;;;17.40;99.90;;;;;;20915155;28;20033;-53
2023/06/02 17:10:21;;;;;;;14.43;12.57;;;17.10;99.90;;;;;;20911214;28;20033;-51
2023/06/02 17:20:23;;;;;;;15.43;12.38;;;17.20;99.90;;;;;;20916860;28;20493;-51
2023/06/02 17:30:24;;;;;;;16.10;11.10;;;17.20;99.90;;;;;;20908527;28;20033;-49
2023/06/02 17:40:26;;;;;;;16.65;13.27;;;17.00;99.90;;;;;;20907413;28;20052;-54
2023/06/02 17:50:28;;;;;;;17.23;14.32;;;16.60;99.90;;;;;;20911109;28;20075;-51
2023/06/02 18:00:30;;;;;;;28.83;21.38;;;16.20;99.90;;;;;;20909381;28;20033;-50
2023/06/02 18:10:32;;;;;;;18.90;14.52;;;15.80;99.90;;;;;;20910009;28;20079;-48
2023/06/02 18:20:34;;;;;;;18.58;14.85;;;15.50;99.90;;;;;;20904795;28;20394;-48
2023/06/02 18:30:35;;;;;;;20.40;16.95;;;15.00;99.90;;;;;;20901147;28;20045;-51
2023/06/02 18:40:37;;;;;;;21.92;16.88;;;14.60;99.90;;;;;;20898649;28;20083;-47
2023/06/02 18:50:40;;;;;;;24.10;16.95;;;14.10;99.90;;;;;;20901279;28;20041;-51
2023/06/02 19:00:42;;;;;;;28.42;18.08;;;13.60;99.90;;;;;;20902011;28;20044;-50
2023/06/02 19:10:44;;;;;;;26.25;18.98;;;13.10;99.90;;;;;;20900431;28;20037;-46
2023/06/02 19:20:45;;;;;;;29.85;22.38;;;12.90;99.90;;;;;;20904916;28;20044;-53
2023/06/02 19:30:47;;;;;;;27.98;21.45;;;12.60;99.90;;;;;;20908338;28;20501;-48
2023/06/02 19:40:52;;;;;;;22.95;18.58;;;12.50;99.90;;;;;;20897864;28;20441;-48
2023/06/02 19:50:54;;;;;;;18.98;14.55;;;12.70;99.90;;;;;;20902760;28;20037;-51
2023/06/02 20:00:55;;;;;;;22.55;15.38;;;12.70;99.90;;;;;;20898629;28;20032;-49
2023/06/02 20:10:57;;;;;;;20.52;14.18;;;12.70;99.90;;;;;;20898039;28;20037;-50
2023/06/02 20:20:59;;;;;;;18.30;12.98;;;12.60;99.90;;;;;;20896701;28;20033;-48
2023/06/02 20:31:01;;;;;;;18.95;13.75;;;12.60;99.90;;;;;;20918041;28;20466;-47
2023/06/02 20:41:03;;;;;;;25.80;18.88;;;12.40;99.90;;;;;;20913698;28;20037;-50
2023/06/02 20:51:05;;;;;;;34.42;26.40;;;12.50;99.90;;;;;;20920218;28;20335;-49
2023/06/02 21:01:07;;;;;;;22.02;16.35;;;13.20;99.90;;;;;;20910814;28;20121;-50
2023/06/02 21:11:08;;;;;;;12.10;8.65;;;13.70;99.90;;;;;;20911525;28;20037;-46
2023/06/02 21:21:10;;;;;;;7.63;6.03;;;13.70;99.90;;;;;;20909837;28;20041;-49
2023/06/02 21:31:12;;;;;;;10.48;7.93;;;12.80;99.90;;;;;;20912478;28;20386;-49
2023/06/02 21:41:13;;;;;;;7.95;7.07;;;11.90;99.90;;;;;;20907559;28;20494;-51
2023/06/02 21:51:15;;;;;;;6.97;5.00;;;11.50;99.90;;;;;;20910961;28;20036;-46
2023/06/02 22:01:17;;;;;;;3.25;2.75;;;11.20;99.90;;;;;;20906740;28;20036;-44
2023/06/02 22:11:19;;;;;;;4.32;3.20;;;11.10;99.90;;;;;;20908231;28;20098;-46
2023/06/02 22:21:21;;;;;;;5.53;3.95;;;10.90;99.90;;;;;;20911770;28;20451;-47
2023/06/02 22:31:23;;;;;;;7.78;3.55;;;10.80;99.90;;;;;;20903830;28;20032;-47
2023/06/02 22:41:25;;;;;;;3.40;2.97;;;10.80;99.90;;;;;;20903893;28;20045;-49
2023/06/02 22:51:26;;;;;;;3.90;3.03;;;10.70;99.90;;;;;;20906450;28;20041;-51
2023/06/02 23:01:28;;;;;;;5.82;3.20;;;10.70;99.90;;;;;;20906449;28;20371;-48
2023/06/02 23:11:30;;;;;;;4.03;3.60;;;10.60;99.90;;;;;;20903909;28;20041;-43
2023/06/02 23:21:31;;;;;;;7.57;5.90;;;10.60;99.90;;;;;;20905037;28;20459;-46
2023/06/02 23:31:33;;;;;;;9.80;7.28;;;10.50;99.90;;;;;;20905341;28;20037;-47
2023/06/02 23:41:34;;;;;;;9.80;6.80;;;10.50;99.90;;;;;;20904054;28;20068;-48
2023/06/02 23:51:36;;;;;;;9.32;6.53;;;10.40;99.90;;;;;;20899847;28;20025;-47
